createdAt,value
2023-01-06T00:00:16.866Z,100540.09
2023-01-06T00:01:13.943Z,100555.38
2023-01-06T00:01:47.955Z,100540.03
2023-01-06T00:02:27.997Z,100555.88
2023-01-06T00:03:07.998Z,100543.91
2023-01-06T00:03:47.905Z,100558.31
2023-01-06T00:04:29.083Z,100543.72
2023-01-06T00:05:08.980Z,100545.19
2023-01-06T00:05:48.983Z,100549.00
2023-01-06T00:06:33.917Z,100543.38
2023-01-06T00:07:13.983Z,100551.25
2023-01-06T00:07:56.950Z,100554.56
2023-01-06T00:08:38.062Z,100567.00
2023-01-06T00:09:18.897Z,100510.75
2023-01-06T00:09:58.975Z,100543.28
2023-01-06T00:10:38.910Z,100559.38
2023-01-06T00:11:20.980Z,100556.28
2023-01-06T00:12:00.915Z,100542.34
2023-01-06T00:12:40.983Z,100564.41
2023-01-06T00:13:20.934Z,100559.06
2023-01-06T00:14:02.047Z,100545.88
2023-01-06T00:14:41.903Z,100557.94
2023-01-06T00:15:23.981Z,100510.22
2023-01-06T00:16:04.012Z,100548.91
2023-01-06T00:16:44.025Z,100540.88
2023-01-06T00:17:24.906Z,100560.72
2023-01-06T00:18:04.968Z,100560.56
2023-01-06T00:18:46.944Z,100541.38
2023-01-06T00:19:27.021Z,100546.25
2023-01-06T00:20:06.919Z,100568.72
2023-01-06T00:20:47.995Z,100562.63
2023-01-06T00:21:27.912Z,100568.72
2023-01-06T00:22:08.239Z,100563.34
2023-01-06T00:22:49.913Z,100554.94
2023-01-06T00:23:30.998Z,100545.91
2023-01-06T00:24:10.940Z,100551.59
2023-01-06T00:24:50.983Z,100568.31
2023-01-06T00:25:30.899Z,100562.28
2023-01-06T00:26:14.026Z,100572.47
2023-01-06T00:26:53.910Z,100563.88
2023-01-06T00:27:33.952Z,100549.13
2023-01-06T00:28:13.903Z,100563.38
2023-01-06T00:28:55.186Z,100580.28
2023-01-06T00:29:35.901Z,100554.13
2023-01-06T00:30:16.966Z,100580.28
2023-01-06T00:30:57.956Z,100567.78
2023-01-06T00:31:37.983Z,100549.75
2023-01-06T00:32:17.907Z,100545.34
2023-01-06T00:32:58.945Z,100578.00
2023-01-06T00:33:38.889Z,100580.56
2023-01-06T00:34:18.984Z,100579.09
2023-01-06T00:34:58.915Z,100584.00
2023-01-06T00:35:38.947Z,100583.16
2023-01-06T00:36:20.885Z,100569.75
2023-01-06T00:37:01.980Z,100547.59
2023-01-06T00:37:42.931Z,100562.25
2023-01-06T00:38:23.983Z,100575.19
2023-01-06T00:39:03.895Z,100582.47
2023-01-06T00:39:43.967Z,100569.06
2023-01-06T00:40:23.920Z,100587.22
2023-01-06T00:41:05.165Z,100595.94
2023-01-06T00:42:03.879Z,100580.19
2023-01-06T00:42:44.940Z,100584.44
2023-01-06T00:43:24.879Z,100595.75
2023-01-06T00:44:05.960Z,100589.72
2023-01-06T00:44:46.913Z,100586.06
2023-01-06T00:45:33.914Z,100571.38
2023-01-06T00:46:07.794Z,100575.09
2023-01-06T00:46:54.862Z,100570.19
2023-01-06T00:47:28.582Z,100596.59
2023-01-06T00:48:15.885Z,100561.19
2023-01-06T00:49:03.919Z,100589.00
2023-01-06T00:49:52.930Z,100599.34
2023-01-06T00:50:26.642Z,100571.56
2023-01-06T00:51:07.895Z,100611.94
2023-01-06T00:51:43.979Z,100601.94
2023-01-06T00:52:18.571Z,100603.69
2023-01-06T00:53:00.886Z,100591.56
2023-01-06T00:53:34.921Z,100602.72
2023-01-06T00:54:11.792Z,100613.88
2023-01-06T00:54:51.853Z,100601.78
2023-01-06T00:55:25.929Z,100610.25
2023-01-06T00:56:02.798Z,100603.97
2023-01-06T00:56:53.919Z,100594.28
2023-01-06T00:57:27.983Z,100616.63
2023-01-06T00:58:01.555Z,100598.16
2023-01-06T00:58:42.846Z,100592.81
2023-01-06T00:59:18.940Z,100568.25
2023-01-06T00:59:52.602Z,100582.16
2023-01-06T01:00:32.880Z,100591.75
2023-01-06T01:01:12.974Z,100619.88
2023-01-06T01:01:48.446Z,100612.19
2023-01-06T01:02:28.979Z,100602.44
2023-01-06T01:03:02.991Z,100617.66
2023-01-06T01:03:38.590Z,100601.78
2023-01-06T01:04:19.868Z,100624.13
2023-01-06T01:04:53.926Z,100622.31
2023-01-06T01:05:28.594Z,100609.81
2023-01-06T01:06:11.863Z,100626.13
2023-01-06T01:06:48.001Z,100621.44
2023-01-06T01:07:21.590Z,100606.06
2023-01-06T01:08:01.871Z,100615.63
2023-01-06T01:08:35.913Z,100611.41
2023-01-06T01:09:19.151Z,100629.81
2023-01-06T01:09:59.859Z,100626.63
2023-01-06T01:10:33.906Z,100633.53
2023-01-06T01:11:31.749Z,100627.25
2023-01-06T01:12:18.851Z,100616.00
2023-01-06T01:12:52.897Z,100631.31
2023-01-06T01:13:32.876Z,100610.03
2023-01-06T01:14:12.953Z,100632.28
2023-01-06T01:14:57.849Z,100621.44
2023-01-06T01:15:38.945Z,100616.88
2023-01-06T01:16:18.854Z,100624.75
2023-01-06T01:16:58.961Z,100614.97
2023-01-06T01:17:38.841Z,100638.09
2023-01-06T01:18:18.922Z,100635.13
2023-01-06T01:18:58.873Z,100645.63
2023-01-06T01:19:39.906Z,100632.91
2023-01-06T01:20:19.866Z,100647.84
2023-01-06T01:20:59.907Z,100649.41
2023-01-06T01:21:40.825Z,100644.22
2023-01-06T01:22:20.948Z,100634.94
2023-01-06T01:23:00.859Z,100610.91
2023-01-06T01:23:40.909Z,100635.59
2023-01-06T01:24:22.870Z,100627.47
2023-01-06T01:25:03.908Z,100627.25
2023-01-06T01:25:43.852Z,100626.47
2023-01-06T01:26:24.906Z,100618.50
2023-01-06T01:27:05.810Z,100635.34
2023-01-06T01:27:45.878Z,100632.16
2023-01-06T01:28:25.849Z,100642.75
2023-01-06T01:29:07.958Z,100635.50
2023-01-06T01:29:47.863Z,100649.06
2023-01-06T01:30:27.892Z,100642.19
2023-01-06T01:31:08.843Z,100652.03
2023-01-06T01:31:49.891Z,100644.75
2023-01-06T01:32:29.834Z,100636.66
2023-01-06T01:33:09.897Z,100644.66
2023-01-06T01:33:51.828Z,100631.00
2023-01-06T01:34:32.877Z,100619.06
2023-01-06T01:35:13.825Z,100649.31
2023-01-06T01:35:53.908Z,100628.03
2023-01-06T01:36:33.846Z,100639.81
2023-01-06T01:37:13.932Z,100643.59
2023-01-06T01:37:53.822Z,100647.06
2023-01-06T01:38:34.897Z,100649.72
2023-01-06T01:39:15.817Z,100636.84
2023-01-06T01:39:55.880Z,100624.75
2023-01-06T01:40:35.869Z,100650.84
2023-01-06T01:41:23.868Z,100648.00
2023-01-06T01:42:04.847Z,100654.78
2023-01-06T01:42:45.886Z,100634.16
2023-01-06T01:43:26.816Z,100629.75
2023-01-06T01:44:29.899Z,100650.69
2023-01-06T01:45:23.846Z,100650.97
2023-01-06T01:46:04.831Z,100656.97
2023-01-06T01:46:49.891Z,100654.16
2023-01-06T01:47:23.358Z,100653.97
2023-01-06T01:48:17.785Z,100657.75
2023-01-06T01:48:51.901Z,100645.81
2023-01-06T01:49:27.231Z,100654.59
2023-01-06T01:50:18.835Z,100656.22
2023-01-06T01:50:56.885Z,100657.75
2023-01-06T01:51:43.802Z,100646.50
2023-01-06T01:52:24.903Z,100642.00
2023-01-06T01:53:16.805Z,100657.75
2023-01-06T01:54:00.895Z,100656.22
2023-01-06T01:54:42.776Z,100646.38
2023-01-06T01:55:23.915Z,100657.75
2023-01-06T01:56:07.794Z,100660.13
2023-01-06T01:57:01.808Z,100645.63
2023-01-06T01:58:02.963Z,100656.66
2023-01-06T01:59:04.797Z,100657.44
2023-01-06T01:59:39.810Z,100652.69
2023-01-06T02:00:27.805Z,100671.59
2023-01-06T02:01:01.829Z,100666.56
2023-01-06T02:01:48.878Z,100657.06
2023-01-06T02:02:29.939Z,100678.13
2023-01-06T02:03:11.897Z,100677.44
2023-01-06T02:03:52.805Z,100659.94
2023-01-06T02:04:34.863Z,100670.19
2023-01-06T02:05:15.800Z,100671.84
2023-01-06T02:05:59.867Z,100675.38
2023-01-06T02:06:39.765Z,100664.84
2023-01-06T02:07:20.916Z,100670.88
2023-01-06T02:08:03.825Z,100661.38
2023-01-06T02:08:56.874Z,100669.41
2023-01-06T02:09:42.855Z,100670.53
2023-01-06T02:10:29.964Z,100660.88
2023-01-06T02:11:10.774Z,100662.94
2023-01-06T02:11:52.181Z,100666.25
2023-01-06T02:12:32.762Z,100656.88
2023-01-06T02:13:19.820Z,100663.22
2023-01-06T02:14:19.736Z,100675.03
2023-01-06T02:15:06.822Z,100656.41
2023-01-06T02:15:42.842Z,100669.53
2023-01-06T02:16:48.786Z,100669.88
2023-01-06T02:17:48.312Z,100661.66
2023-01-06T02:19:08.857Z,100671.63
2023-01-06T02:20:03.478Z,100679.91
2023-01-06T02:21:20.801Z,100675.03
2023-01-06T02:22:33.595Z,100682.09
2023-01-06T02:24:08.796Z,100683.06
2023-01-06T02:25:00.269Z,100683.16
2023-01-06T02:26:21.799Z,100681.97
2023-01-06T02:27:14.921Z,100677.13
2023-01-06T02:28:53.789Z,100678.59
2023-01-06T02:30:46.845Z,100681.97
2023-01-06T02:32:00.938Z,100681.47
2023-01-06T02:33:09.802Z,100679.81
2023-01-06T02:34:03.869Z,100655.69
2023-01-06T02:35:13.771Z,100685.41
2023-01-06T02:36:35.802Z,100679.72
2023-01-06T02:38:17.769Z,100686.97
2023-01-06T02:39:24.921Z,100678.00
2023-01-06T02:40:29.729Z,100678.00
2023-01-06T02:41:29.766Z,100690.59
2023-01-06T02:42:41.806Z,100685.94
2023-01-06T02:43:58.838Z,100690.88
2023-01-06T02:44:53.784Z,100700.97
2023-01-06T02:46:03.860Z,100677.31
2023-01-06T02:47:04.771Z,100684.72
2023-01-06T02:48:58.763Z,100694.13
2023-01-06T02:50:01.773Z,100696.06
2023-01-06T02:51:04.769Z,100688.88
2023-01-06T02:52:18.730Z,100690.28
2023-01-06T02:53:37.785Z,100710.22
2023-01-06T02:55:03.935Z,100694.50
2023-01-06T02:55:53.799Z,100692.78
2023-01-06T02:56:38.730Z,100671.63
2023-01-06T02:57:21.799Z,100697.53
2023-01-06T02:58:15.716Z,100669.72
2023-01-06T02:59:09.798Z,100688.47
2023-01-06T03:00:29.790Z,100682.31
2023-01-06T03:01:33.910Z,100676.81
2023-01-06T03:03:21.790Z,100689.44
2023-01-06T03:03:57.295Z,100701.88
2023-01-06T03:04:49.786Z,100681.81
2023-01-06T03:05:23.831Z,100689.59
2023-01-06T03:06:10.734Z,100695.47
2023-01-06T03:06:55.037Z,100690.66
2023-01-06T03:07:35.735Z,100694.69
2023-01-06T03:08:21.815Z,100693.06
2023-01-06T03:09:02.729Z,100698.41
2023-01-06T03:09:44.866Z,100694.72
2023-01-06T03:10:26.727Z,100682.88
2023-01-06T03:11:07.801Z,100700.94
2023-01-06T03:11:49.735Z,100698.16
2023-01-06T03:12:55.743Z,100695.22
2023-01-06T03:14:01.761Z,100703.75
2023-01-06T03:14:48.764Z,100692.28
2023-01-06T03:15:30.710Z,100706.69
2023-01-06T03:16:11.932Z,100678.13
2023-01-06T03:16:51.740Z,100692.53
2023-01-06T03:17:32.799Z,100704.00
2023-01-06T03:18:13.723Z,100706.25
2023-01-06T03:18:55.945Z,100704.81
2023-01-06T03:19:36.739Z,100684.09
2023-01-06T03:20:17.808Z,100683.75
2023-01-06T03:20:59.758Z,100685.56
2023-01-06T03:21:44.846Z,100699.13
2023-01-06T03:22:24.733Z,100695.81
2023-01-06T03:23:04.770Z,100682.00
2023-01-06T03:23:46.713Z,100687.03
2023-01-06T03:24:26.762Z,100688.41
2023-01-06T03:25:08.715Z,100700.50
2023-01-06T03:25:48.834Z,100693.06
2023-01-06T03:26:31.739Z,100704.47
2023-01-06T03:27:11.812Z,100706.34
2023-01-06T03:27:52.748Z,100689.84
2023-01-06T03:28:32.774Z,100711.19
2023-01-06T03:29:18.753Z,100705.69
2023-01-06T03:29:58.764Z,100707.56
2023-01-06T03:30:52.709Z,100704.91
2023-01-06T03:31:46.837Z,100704.78
2023-01-06T03:32:47.716Z,100703.94
2023-01-06T03:33:58.728Z,100709.13
2023-01-06T03:34:56.866Z,100716.56
2023-01-06T03:36:10.685Z,100703.50
2023-01-06T03:37:02.879Z,100679.75
2023-01-06T03:38:53.700Z,100703.94
2023-01-06T03:40:01.759Z,100703.25
2023-01-06T03:41:55.683Z,100684.00
2023-01-06T03:43:22.691Z,100697.81
2023-01-06T03:44:20.671Z,100697.09
2023-01-06T03:45:44.762Z,100702.22
2023-01-06T03:46:55.746Z,100697.81
2023-01-06T03:48:13.703Z,100709.84
2023-01-06T03:49:34.696Z,100702.81
2023-01-06T03:50:40.688Z,100700.84
2023-01-06T03:51:46.701Z,100687.03
2023-01-06T03:52:35.781Z,100698.22
2023-01-06T03:53:32.682Z,100702.75
2023-01-06T03:55:00.800Z,100697.91
2023-01-06T03:55:43.675Z,100681.50
2023-01-06T03:56:53.694Z,100689.94
2023-01-06T03:57:51.680Z,100693.25
2023-01-06T03:58:47.685Z,100703.75
2023-01-06T03:59:44.753Z,100701.69
2023-01-06T04:00:43.735Z,100704.47
2023-01-06T04:01:38.724Z,100677.25
2023-01-06T04:02:19.683Z,100705.69
2023-01-06T04:02:59.745Z,100701.59
2023-01-06T04:03:40.703Z,100701.34
2023-01-06T04:04:20.771Z,100704.47
2023-01-06T04:05:21.692Z,100694.63
2023-01-06T04:06:01.726Z,100682.31
2023-01-06T04:06:42.671Z,100715.34
2023-01-06T04:07:29.697Z,100697.13
2023-01-06T04:08:23.655Z,100686.31
2023-01-06T04:09:17.678Z,100690.09
2023-01-06T04:10:11.643Z,100704.81
2023-01-06T04:11:05.658Z,100699.47
2023-01-06T04:12:17.692Z,100700.13
2023-01-06T04:12:58.688Z,100699.13
2023-01-06T04:13:38.741Z,100688.75
2023-01-06T04:14:18.678Z,100689.41
2023-01-06T04:14:58.918Z,100702.56
2023-01-06T04:15:39.672Z,100708.38
2023-01-06T04:16:20.728Z,100705.16
2023-01-06T04:17:00.644Z,100676.31
2023-01-06T04:17:41.713Z,100705.69
2023-01-06T04:18:21.697Z,100693.56
2023-01-06T04:19:01.733Z,100700.34
2023-01-06T04:19:41.709Z,100703.94
2023-01-06T04:20:34.721Z,100700.16
2023-01-06T04:21:15.634Z,100711.81
2023-01-06T04:21:55.717Z,100709.84
2023-01-06T04:22:35.648Z,100692.88
2023-01-06T04:23:15.751Z,100684.44
2023-01-06T04:23:55.653Z,100705.06
2023-01-06T04:24:37.724Z,100707.06
2023-01-06T04:25:18.650Z,100707.06
2023-01-06T04:25:58.713Z,100706.72
2023-01-06T04:26:40.658Z,100708.63
2023-01-06T04:27:20.715Z,100710.34
2023-01-06T04:28:01.630Z,100692.38
2023-01-06T04:28:42.709Z,100699.28
2023-01-06T04:29:22.654Z,100710.16
2023-01-06T04:30:02.709Z,100698.59
2023-01-06T04:30:43.663Z,100704.28
2023-01-06T04:31:23.795Z,100708.78
2023-01-06T04:32:03.668Z,100707.22
2023-01-06T04:32:43.751Z,100689.63
2023-01-06T04:33:23.630Z,100716.31
2023-01-06T04:34:03.734Z,100692.72
2023-01-06T04:34:43.670Z,100700.31
2023-01-06T04:35:24.702Z,100697.28
2023-01-06T04:36:04.685Z,100707.56
2023-01-06T04:36:44.711Z,100702.03
2023-01-06T04:37:25.640Z,100700.22
2023-01-06T04:38:19.664Z,100701.06
2023-01-06T04:39:13.646Z,100696.84
2023-01-06T04:40:00.660Z,100683.22
2023-01-06T04:40:34.707Z,100692.88
2023-01-06T04:41:21.629Z,100693.13
2023-01-06T04:41:55.673Z,100695.56
2023-01-06T04:43:01.625Z,100700.16
2023-01-06T04:43:35.694Z,100692.28
2023-01-06T04:44:22.647Z,100688.81
2023-01-06T04:44:56.708Z,100673.72
2023-01-06T04:45:36.693Z,100692.72
2023-01-06T04:46:16.711Z,100705.31
2023-01-06T04:46:59.667Z,100681.50
2023-01-06T04:47:39.682Z,100692.72
2023-01-06T04:48:20.657Z,100677.34
2023-01-06T04:49:02.621Z,100690.28
2023-01-06T04:49:42.636Z,100708.59
2023-01-06T04:50:22.720Z,100697.38
2023-01-06T04:51:11.715Z,100696.50
2023-01-06T04:51:51.714Z,100702.38
2023-01-06T04:52:31.600Z,100694.84
2023-01-06T04:53:13.731Z,100698.38
2023-01-06T04:53:54.624Z,100686.50
2023-01-06T04:54:34.694Z,100696.66
2023-01-06T04:55:15.592Z,100697.53
2023-01-06T04:55:55.689Z,100692.09
2023-01-06T04:56:35.617Z,100703.06
2023-01-06T04:57:15.726Z,100701.16
2023-01-06T04:57:56.647Z,100709.19
2023-01-06T04:58:36.667Z,100709.28
2023-01-06T04:59:17.611Z,100707.31
2023-01-06T04:59:57.696Z,100710.97
2023-01-06T05:00:37.622Z,100712.75
2023-01-06T05:01:19.732Z,100697.38
2023-01-06T05:02:00.730Z,100702.38
2023-01-06T05:02:40.667Z,100710.84
2023-01-06T05:03:21.604Z,100693.97
2023-01-06T05:04:02.691Z,100710.41
2023-01-06T05:04:47.691Z,100719.31
2023-01-06T05:05:28.692Z,100713.78
2023-01-06T05:06:10.624Z,100718.00
2023-01-06T05:06:50.747Z,100711.59
2023-01-06T05:07:30.631Z,100722.22
2023-01-06T05:08:11.667Z,100714.19
2023-01-06T05:08:52.595Z,100704.78
2023-01-06T05:09:32.651Z,100715.56
2023-01-06T05:10:15.616Z,100713.25
2023-01-06T05:10:55.689Z,100715.56
2023-01-06T05:11:35.597Z,100719.31
2023-01-06T05:12:15.678Z,100717.59
2023-01-06T05:12:56.632Z,100719.66
2023-01-06T05:13:38.708Z,100729.78
2023-01-06T05:14:21.297Z,100717.13
2023-01-06T05:15:01.646Z,100723.97
2023-01-06T05:15:41.587Z,100724.16
2023-01-06T05:16:38.560Z,100723.72
2023-01-06T05:17:19.608Z,100721.31
2023-01-06T05:18:06.640Z,100727.94
2023-01-06T05:19:00.583Z,100717.34
2023-01-06T05:19:54.599Z,100727.09
2023-01-06T05:20:48.586Z,100719.06
2023-01-06T05:21:44.577Z,100697.91
2023-01-06T05:22:38.585Z,100728.22
2023-01-06T05:23:25.633Z,100695.66
2023-01-06T05:24:00.742Z,100715.25
2023-01-06T05:24:47.626Z,100725.38
2023-01-06T05:25:21.680Z,100719.66
2023-01-06T05:26:08.601Z,100713.25
2023-01-06T05:26:42.664Z,100713.44
2023-01-06T05:27:29.568Z,100714.34
2023-01-06T05:28:03.658Z,100705.75
2023-01-06T05:28:50.592Z,100726.63
2023-01-06T05:29:24.644Z,100711.38
2023-01-06T05:30:12.588Z,100710.91
2023-01-06T05:30:46.634Z,100702.72
2023-01-06T05:31:33.609Z,100718.69
2023-01-06T05:32:07.840Z,100720.66
2023-01-06T05:32:54.569Z,100721.38
2023-01-06T05:33:28.668Z,100720.50
2023-01-06T05:34:17.593Z,100710.28
2023-01-06T05:34:51.783Z,100700.78
2023-01-06T05:35:38.554Z,100694.31
2023-01-06T05:36:21.663Z,100715.78
2023-01-06T05:37:08.612Z,100707.94
2023-01-06T05:37:42.676Z,100704.03
2023-01-06T05:38:29.583Z,100719.75
2023-01-06T05:39:03.632Z,100707.75
2023-01-06T05:39:43.605Z,100711.47
2023-01-06T05:40:24.653Z,100713.38
2023-01-06T05:41:04.559Z,100707.16
2023-01-06T05:41:44.615Z,100702.63
2023-01-06T05:42:24.544Z,100712.16
2023-01-06T05:43:05.630Z,100714.06
2023-01-06T05:43:46.612Z,100712.16
2023-01-06T05:44:26.665Z,100710.25
2023-01-06T05:45:07.610Z,100698.72
2023-01-06T05:45:47.667Z,100699.53
2023-01-06T05:46:27.544Z,100707.97
2023-01-06T05:47:07.631Z,100698.25
2023-01-06T05:47:47.562Z,100692.97
2023-01-06T05:48:32.647Z,100708.69
2023-01-06T05:49:12.540Z,100719.44
2023-01-06T05:49:52.620Z,100720.47
2023-01-06T05:50:32.596Z,100700.25
2023-01-06T05:51:16.652Z,100713.69
2023-01-06T05:51:56.560Z,100711.72
2023-01-06T05:52:36.626Z,100702.50
2023-01-06T05:53:16.559Z,100697.44
2023-01-06T05:53:56.619Z,100688.59
2023-01-06T05:54:37.561Z,100707.22
2023-01-06T05:55:17.627Z,100710.78
2023-01-06T05:55:57.626Z,100704.38
2023-01-06T05:56:37.637Z,100706.47
2023-01-06T05:57:18.559Z,100707.22
2023-01-06T05:57:58.608Z,100710.50
2023-01-06T05:58:43.560Z,100702.66
2023-01-06T05:59:23.654Z,100715.88
2023-01-06T06:00:03.574Z,100709.84
2023-01-06T06:00:43.651Z,100720.69
2023-01-06T06:01:30.618Z,100720.69
2023-01-06T06:02:10.659Z,100699.78
2023-01-06T06:02:51.567Z,100694.38
2023-01-06T06:03:31.698Z,100698.31
2023-01-06T06:04:12.543Z,100712.53
2023-01-06T06:04:52.597Z,100698.53
2023-01-06T06:05:32.542Z,100716.09
2023-01-06T06:06:13.631Z,100720.47
2023-01-06T06:06:53.554Z,100710.91
2023-01-06T06:07:33.593Z,100733.47
2023-01-06T06:08:13.554Z,100713.13
2023-01-06T06:08:53.595Z,100723.09
2023-01-06T06:09:34.570Z,100720.69
2023-01-06T06:10:15.624Z,100715.59
2023-01-06T06:10:55.540Z,100709.47
2023-01-06T06:11:35.611Z,100707.50
2023-01-06T06:12:15.560Z,100716.13
2023-01-06T06:12:59.605Z,100722.34
2023-01-06T06:13:40.554Z,100722.63
2023-01-06T06:14:20.701Z,100705.56
2023-01-06T06:15:00.553Z,100709.91
2023-01-06T06:15:40.757Z,100709.97
2023-01-06T06:16:22.591Z,100704.81
2023-01-06T06:17:02.607Z,100695.22
2023-01-06T06:17:43.563Z,100712.66
2023-01-06T06:18:23.604Z,100703.75
2023-01-06T06:19:05.529Z,100710.06
2023-01-06T06:19:45.618Z,100691.84
2023-01-06T06:20:25.524Z,100707.28
2023-01-06T06:21:10.630Z,100701.16
2023-01-06T06:21:50.508Z,100720.41
2023-01-06T06:22:30.599Z,100699.44
2023-01-06T06:23:10.546Z,100714.00
2023-01-06T06:23:50.663Z,100706.31
2023-01-06T06:24:30.543Z,100718.44
2023-01-06T06:25:10.604Z,100702.13
2023-01-06T06:25:50.513Z,100721.00
2023-01-06T06:26:31.569Z,100720.91
2023-01-06T06:27:12.507Z,100723.31
2023-01-06T06:27:52.600Z,100718.13
2023-01-06T06:28:32.555Z,100708.72
2023-01-06T06:29:14.598Z,100725.03
2023-01-06T06:29:54.507Z,100727.81
2023-01-06T06:30:34.603Z,100716.59
2023-01-06T06:31:18.545Z,100724.44
2023-01-06T06:31:59.583Z,100728.00
2023-01-06T06:32:40.526Z,100733.56
2023-01-06T06:33:20.589Z,100716.13
2023-01-06T06:34:04.523Z,100736.16
2023-01-06T06:34:44.609Z,100729.91
2023-01-06T06:35:25.555Z,100731.91
2023-01-06T06:36:06.634Z,100734.59
2023-01-06T06:36:47.519Z,100739.63
2023-01-06T06:37:27.605Z,100733.31
2023-01-06T06:38:07.505Z,100743.50
2023-01-06T06:38:48.592Z,100745.06
2023-01-06T06:39:29.520Z,100734.97
2023-01-06T06:40:10.568Z,100732.78
2023-01-06T06:40:51.503Z,100726.00
2023-01-06T06:41:32.574Z,100721.88
2023-01-06T06:42:12.509Z,100721.28
2023-01-06T06:42:58.579Z,100737.44
2023-01-06T06:43:40.518Z,100729.31
2023-01-06T06:44:20.592Z,100726.06
2023-01-06T06:45:00.505Z,100732.94
2023-01-06T06:45:41.600Z,100700.50
2023-01-06T06:46:21.499Z,100710.50
2023-01-06T06:47:01.581Z,100725.94
2023-01-06T06:47:41.477Z,100717.78
2023-01-06T06:48:22.601Z,100733.31
2023-01-06T06:49:02.489Z,100719.41
2023-01-06T06:49:42.551Z,100732.06
2023-01-06T06:50:22.494Z,100734.38
2023-01-06T06:51:06.603Z,100736.78
2023-01-06T06:51:46.485Z,100743.88
2023-01-06T06:52:26.597Z,100713.09
2023-01-06T06:53:06.479Z,100744.63
2023-01-06T06:53:47.541Z,100739.53
2023-01-06T06:54:28.491Z,100742.91
2023-01-06T06:55:08.818Z,100714.50
2023-01-06T06:55:48.514Z,100743.47
2023-01-06T06:56:28.607Z,100737.69
2023-01-06T06:57:08.497Z,100740.22
2023-01-06T06:57:48.564Z,100736.34
2023-01-06T06:58:29.492Z,100737.31
2023-01-06T06:59:10.539Z,100723.31
2023-01-06T06:59:50.504Z,100735.81
2023-01-06T07:00:30.663Z,100732.00
2023-01-06T07:01:16.668Z,100726.44
2023-01-06T07:01:56.703Z,100735.84
2023-01-06T07:02:37.525Z,100734.03
2023-01-06T07:03:17.545Z,100732.41
2023-01-06T07:03:58.526Z,100731.38
2023-01-06T07:04:38.545Z,100737.38
2023-01-06T07:05:18.500Z,100738.50
2023-01-06T07:05:59.595Z,100732.78
2023-01-06T07:06:39.491Z,100738.94
2023-01-06T07:07:19.527Z,100727.72
2023-01-06T07:08:00.489Z,100734.69
2023-01-06T07:08:42.624Z,100723.75
2023-01-06T07:09:22.495Z,100725.31
2023-01-06T07:10:02.536Z,100732.03
2023-01-06T07:10:43.503Z,100722.63
2023-01-06T07:11:24.522Z,100716.28
2023-01-06T07:12:04.500Z,100729.59
2023-01-06T07:12:45.552Z,100721.50
2023-01-06T07:13:25.469Z,100725.09
2023-01-06T07:14:05.548Z,100721.88
2023-01-06T07:14:45.556Z,100728.09
2023-01-06T07:15:25.541Z,100739.09
2023-01-06T07:16:05.522Z,100731.22
2023-01-06T07:16:46.550Z,100731.16
2023-01-06T07:17:26.503Z,100734.75
2023-01-06T07:18:08.674Z,100732.59
2023-01-06T07:18:48.489Z,100729.81
2023-01-06T07:19:31.699Z,100740.66
2023-01-06T07:20:12.626Z,100733.63
2023-01-06T07:20:57.768Z,100727.19
2023-01-06T07:21:38.716Z,100703.03
2023-01-06T07:22:18.539Z,100724.50
2023-01-06T07:22:58.509Z,100739.84
2023-01-06T07:23:38.583Z,100718.97
2023-01-06T07:24:18.464Z,100722.41
2023-01-06T07:24:58.558Z,100739.69
2023-01-06T07:25:39.460Z,100738.88
2023-01-06T07:26:19.550Z,100738.88
2023-01-06T07:26:59.474Z,100739.84
2023-01-06T07:27:40.662Z,100718.06
2023-01-06T07:28:20.491Z,100740.50
2023-01-06T07:29:00.544Z,100736.13
2023-01-06T07:29:40.469Z,100747.88
2023-01-06T07:30:21.515Z,100732.38
2023-01-06T07:31:02.504Z,100741.66
2023-01-06T07:31:56.489Z,100727.72
2023-01-06T07:32:50.459Z,100747.22
2023-01-06T07:33:37.476Z,100732.47
2023-01-06T07:34:11.574Z,100747.22
2023-01-06T07:34:58.462Z,100741.81
2023-01-06T07:35:32.562Z,100724.16
2023-01-06T07:36:19.451Z,100735.97
2023-01-06T07:36:53.528Z,100743.47
2023-01-06T07:37:40.438Z,100735.97
2023-01-06T07:38:15.567Z,100726.00
2023-01-06T07:39:02.517Z,100729.28
2023-01-06T07:39:36.499Z,100740.81
2023-01-06T07:40:24.483Z,100724.28
2023-01-06T07:40:58.505Z,100744.63
2023-01-06T07:41:45.470Z,100730.25
2023-01-06T07:42:19.542Z,100737.91
2023-01-06T07:43:14.458Z,100738.31
2023-01-06T07:43:48.527Z,100737.28
2023-01-06T07:44:29.460Z,100721.28
2023-01-06T07:45:11.600Z,100735.44
2023-01-06T07:45:54.491Z,100737.97
2023-01-06T07:46:34.522Z,100736.72
2023-01-06T07:47:15.439Z,100733.75
2023-01-06T07:47:55.519Z,100721.66
2023-01-06T07:48:35.441Z,100724.41
2023-01-06T07:49:15.554Z,100729.50
2023-01-06T07:49:55.441Z,100734.97
2023-01-06T07:50:36.553Z,100737.06
2023-01-06T07:51:16.406Z,100726.16
2023-01-06T07:51:56.502Z,100724.53
2023-01-06T07:52:37.397Z,100738.50
2023-01-06T07:53:17.501Z,100739.69
2023-01-06T07:53:58.431Z,100739.75
2023-01-06T07:54:38.512Z,100735.66
2023-01-06T07:55:18.456Z,100738.81
2023-01-06T07:56:00.581Z,100723.75
2023-01-06T07:56:40.414Z,100739.69
2023-01-06T07:57:20.499Z,100747.16
2023-01-06T07:58:01.431Z,100732.59
2023-01-06T07:58:41.481Z,100741.28
2023-01-06T07:59:21.431Z,100722.09
2023-01-06T08:00:02.527Z,100729.50
2023-01-06T08:00:43.431Z,100722.22
2023-01-06T08:01:23.584Z,100736.03
2023-01-06T08:02:03.532Z,100727.22
2023-01-06T08:02:43.560Z,100717.72
2023-01-06T08:03:24.471Z,100735.19
2023-01-06T08:04:04.495Z,100729.91
2023-01-06T08:04:44.396Z,100732.38
2023-01-06T08:05:25.457Z,100731.59
2023-01-06T08:06:06.466Z,100729.88
2023-01-06T08:06:47.558Z,100743.50
2023-01-06T08:07:27.483Z,100720.47
2023-01-06T08:08:07.508Z,100729.19
2023-01-06T08:08:48.397Z,100736.78
2023-01-06T08:09:28.483Z,100736.00
2023-01-06T08:10:09.407Z,100729.38
2023-01-06T08:10:50.524Z,100729.41
2023-01-06T08:11:31.440Z,100727.69
2023-01-06T08:12:12.572Z,100730.97
2023-01-06T08:12:53.458Z,100714.69
2023-01-06T08:13:34.137Z,100727.16
2023-01-06T08:14:14.428Z,100724.88
2023-01-06T08:14:54.459Z,100721.44
2023-01-06T08:15:34.409Z,100716.94
2023-01-06T08:16:16.517Z,100702.06
2023-01-06T08:16:56.606Z,100715.09
2023-01-06T08:17:37.514Z,100717.59
2023-01-06T08:18:18.576Z,100718.66
2023-01-06T08:18:58.495Z,100705.34
2023-01-06T08:19:39.443Z,100721.81
2023-01-06T08:20:19.493Z,100714.25
2023-01-06T08:20:59.593Z,100704.16
2023-01-06T08:21:39.495Z,100711.41
2023-01-06T08:22:20.400Z,100715.47
2023-01-06T08:23:00.478Z,100716.78
2023-01-06T08:23:42.582Z,100716.50
2023-01-06T08:24:22.443Z,100711.25
2023-01-06T08:25:03.396Z,100720.63
2023-01-06T08:25:43.482Z,100713.06
2023-01-06T08:26:24.412Z,100707.59